sensor_id;sensor_type;location;lat;lon;timestamp;P1;durP1;ratioP1;P2;durP2;ratioP2
21099;SDS011;10708;50.824;4.408;2023-04-04T00:03:40;484.95;;;458.17;;
21099;SDS011;10708;50.824;4.408;2023-04-04T00:08:44;494.67;;;466.85;;
21099;SDS011;10708;50.824;4.408;2023-04-04T00:13:47;491.77;;;464.13;;
21099;SDS011;10708;50.824;4.408;2023-04-04T00:18:49;426.97;;;403.47;;
21099;SDS011;10708;50.824;4.408;2023-04-04T00:23:53;448.05;;;423.13;;
21099;SDS011;10708;50.824;4.408;2023-04-04T00:28:55;462.33;;;436.60;;
21099;SDS011;10708;50.824;4.408;2023-04-04T00:33:58;384.45;;;363.77;;
21099;SDS011;10708;50.824;4.408;2023-04-04T00:39:02;150.02;;;141.77;;
21099;SDS011;10708;50.824;4.408;2023-04-04T00:44:04;110.15;;;104.20;;
21099;SDS011;10708;50.824;4.408;2023-04-04T00:49:07;164.05;;;155.43;;
21099;SDS011;10708;50.824;4.408;2023-04-04T00:54:11;231.77;;;219.70;;
21099;SDS011;10708;50.824;4.408;2023-04-04T00:59:13;176.07;;;166.68;;
21099;SDS011;10708;50.824;4.408;2023-04-04T01:04:16;183.23;;;173.65;;
21099;SDS011;10708;50.824;4.408;2023-04-04T01:09:19;244.77;;;232.25;;
21099;SDS011;10708;50.824;4.408;2023-04-04T01:14:22;325.60;;;308.42;;
21099;SDS011;10708;50.824;4.408;2023-04-04T01:19:27;369.13;;;349.73;;
21099;SDS011;10708;50.824;4.408;2023-04-04T01:24:34;340.33;;;322.50;;
21099;SDS011;10708;50.824;4.408;2023-04-04T01:29:38;234.30;;;221.85;;
21099;SDS011;10708;50.824;4.408;2023-04-04T01:34:41;137.32;;;130.05;;
21099;SDS011;10708;50.824;4.408;2023-04-04T01:39:51;136.20;;;129.13;;
21099;SDS011;10708;50.824;4.408;2023-04-04T01:44:58;175.63;;;166.10;;
21099;SDS011;10708;50.824;4.408;2023-04-04T01:50:01;84.18;;;79.60;;
21099;SDS011;10708;50.824;4.408;2023-04-04T01:55:04;109.17;;;103.30;;
21099;SDS011;10708;50.824;4.408;2023-04-04T02:00:11;64.70;;;60.88;;
21099;SDS011;10708;50.824;4.408;2023-04-04T02:05:15;144.40;;;136.80;;
21099;SDS011;10708;50.824;4.408;2023-04-04T02:10:18;209.15;;;198.50;;
21099;SDS011;10708;50.824;4.408;2023-04-04T02:15:22;318.80;;;301.80;;
21099;SDS011;10708;50.824;4.408;2023-04-04T02:20:25;294.83;;;278.57;;
21099;SDS011;10708;50.824;4.408;2023-04-04T02:25:27;252.40;;;238.55;;
21099;SDS011;10708;50.824;4.408;2023-04-04T02:30:31;174.48;;;165.00;;
21099;SDS011;10708;50.824;4.408;2023-04-04T02:35:35;34.50;;;32.30;;
21099;SDS011;10708;50.824;4.408;2023-04-04T02:40:37;202.50;;;191.80;;
21099;SDS011;10708;50.824;4.408;2023-04-04T02:45:43;191.23;;;180.73;;
21099;SDS011;10708;50.824;4.408;2023-04-04T02:50:45;140.50;;;132.90;;
21099;SDS011;10708;50.824;4.408;2023-04-04T02:55:48;61.13;;;57.43;;
21099;SDS011;10708;50.824;4.408;2023-04-04T03:00:54;35.38;;;33.28;;
21099;SDS011;10708;50.824;4.408;2023-04-04T03:05:57;54.57;;;51.27;;
21099;SDS011;10708;50.824;4.408;2023-04-04T03:10:59;84.03;;;79.17;;
21099;SDS011;10708;50.824;4.408;2023-04-04T03:16:04;72.72;;;68.65;;
21099;SDS011;10708;50.824;4.408;2023-04-04T03:21:07;75.23;;;71.23;;
21099;SDS011;10708;50.824;4.408;2023-04-04T03:26:09;81.77;;;77.27;;
21099;SDS011;10708;50.824;4.408;2023-04-04T03:31:13;93.43;;;88.38;;
21099;SDS011;10708;50.824;4.408;2023-04-04T03:36:16;57.73;;;54.33;;
21099;SDS011;10708;50.824;4.408;2023-04-04T03:41:18;89.05;;;83.97;;
21099;SDS011;10708;50.824;4.408;2023-04-04T03:46:22;53.15;;;49.97;;
21099;SDS011;10708;50.824;4.408;2023-04-04T03:51:25;196.77;;;185.07;;
21099;SDS011;10708;50.824;4.408;2023-04-04T03:56:28;56.53;;;53.20;;
21099;SDS011;10708;50.824;4.408;2023-04-04T04:01:32;80.47;;;75.72;;
21099;SDS011;10708;50.824;4.408;2023-04-04T04:06:35;72.15;;;67.80;;
21099;SDS011;10708;50.824;4.408;2023-04-04T04:11:37;311.80;;;293.60;;
21099;SDS011;10708;50.824;4.408;2023-04-04T04:16:41;76.90;;;72.43;;
21099;SDS011;10708;50.824;4.408;2023-04-04T04:21:43;109.05;;;103.15;;
21099;SDS011;10708;50.824;4.408;2023-04-04T04:26:45;182.70;;;172.48;;
21099;SDS011;10708;50.824;4.408;2023-04-04T04:31:49;90.28;;;85.25;;
21099;SDS011;10708;50.824;4.408;2023-04-04T04:36:52;152.83;;;144.33;;
21099;SDS011;10708;50.824;4.408;2023-04-04T04:41:54;166.98;;;157.80;;
21099;SDS011;10708;50.824;4.408;2023-04-04T04:46:58;136.73;;;129.27;;
21099;SDS011;10708;50.824;4.408;2023-04-04T04:52:01;313.67;;;296.80;;
21099;SDS011;10708;50.824;4.408;2023-04-04T04:57:03;322.20;;;303.60;;
21099;SDS011;10708;50.824;4.408;2023-04-04T05:02:07;381.70;;;360.52;;
21099;SDS011;10708;50.824;4.408;2023-04-04T05:07:09;117.25;;;110.57;;
21099;SDS011;10708;50.824;4.408;2023-04-04T05:12:12;117.68;;;111.32;;
21099;SDS011;10708;50.824;4.408;2023-04-04T05:17:16;65.60;;;61.78;;
21099;SDS011;10708;50.824;4.408;2023-04-04T05:22:18;85.68;;;80.82;;
21099;SDS011;10708;50.824;4.408;2023-04-04T05:27:21;177.95;;;168.45;;
21099;SDS011;10708;50.824;4.408;2023-04-04T05:32:25;240.37;;;227.57;;
21099;SDS011;10708;50.824;4.408;2023-04-04T05:37:27;332.15;;;314.00;;
21099;SDS011;10708;50.824;4.408;2023-04-04T05:42:30;78.30;;;73.87;;
21099;SDS011;10708;50.824;4.408;2023-04-04T05:47:35;169.80;;;160.47;;
21099;SDS011;10708;50.824;4.408;2023-04-04T05:52:37;176.15;;;166.65;;
21099;SDS011;10708;50.824;4.408;2023-04-04T05:57:45;156.73;;;148.17;;
21099;SDS011;10708;50.824;4.408;2023-04-04T06:02:50;270.63;;;256.10;;
21099;SDS011;10708;50.824;4.408;2023-04-04T06:07:52;337.85;;;319.70;;
21099;SDS011;10708;50.824;4.408;2023-04-04T06:12:55;384.90;;;363.63;;
21099;SDS011;10708;50.824;4.408;2023-04-04T06:17:59;353.57;;;334.27;;
21099;SDS011;10708;50.824;4.408;2023-04-04T06:23:01;327.83;;;309.17;;
21099;SDS011;10708;50.824;4.408;2023-04-04T06:28:04;343.45;;;324.45;;
21099;SDS011;10708;50.824;4.408;2023-04-04T06:33:09;32.50;;;30.33;;
21099;SDS011;10708;50.824;4.408;2023-04-04T06:38:12;32.08;;;29.92;;
21099;SDS011;10708;50.824;4.408;2023-04-04T06:43:15;112.68;;;106.53;;
21099;SDS011;10708;50.824;4.408;2023-04-04T06:48:19;123.65;;;116.72;;
21099;SDS011;10708;50.824;4.408;2023-04-04T06:53:22;142.63;;;134.80;;
21099;SDS011;10708;50.824;4.408;2023-04-04T06:58:26;82.47;;;77.33;;
21099;SDS011;10708;50.824;4.408;2023-04-04T07:03:30;54.13;;;50.73;;
21099;SDS011;10708;50.824;4.408;2023-04-04T07:08:35;53.83;;;50.58;;
21099;SDS011;10708;50.824;4.408;2023-04-04T07:13:42;53.22;;;49.90;;
21099;SDS011;10708;50.824;4.408;2023-04-04T07:18:48;44.63;;;41.72;;
21099;SDS011;10708;50.824;4.408;2023-04-04T07:24:02;269.67;;;255.40;;
21099;SDS011;10708;50.824;4.408;2023-04-04T07:29:14;52.35;;;49.40;;
21099;SDS011;10708;50.824;4.408;2023-04-04T07:34:18;64.13;;;60.42;;
21099;SDS011;10708;50.824;4.408;2023-04-04T07:39:21;139.05;;;131.85;;
21099;SDS011;10708;50.824;4.408;2023-04-04T07:44:24;83.97;;;79.35;;
21099;SDS011;10708;50.824;4.408;2023-04-04T07:49:31;123.13;;;116.70;;
21099;SDS011;10708;50.824;4.408;2023-04-04T07:54:36;163.73;;;155.30;;
21099;SDS011;10708;50.824;4.408;2023-04-04T07:59:40;23.77;;;22.27;;
21099;SDS011;10708;50.824;4.408;2023-04-04T08:04:44;60.58;;;57.22;;
21099;SDS011;10708;50.824;4.408;2023-04-04T08:09:47;28.50;;;26.60;;
21099;SDS011;10708;50.824;4.408;2023-04-04T08:14:50;191.27;;;181.57;;
21099;SDS011;10708;50.824;4.408;2023-04-04T08:19:54;169.07;;;160.57;;
21099;SDS011;10708;50.824;4.408;2023-04-04T08:24:57;81.35;;;76.93;;
21099;SDS011;10708;50.824;4.408;2023-04-04T08:30:00;34.20;;;32.23;;
21099;SDS011;10708;50.824;4.408;2023-04-04T08:35:05;48.92;;;46.00;;
21099;SDS011;10708;50.824;4.408;2023-04-04T08:40:09;43.03;;;40.53;;
21099;SDS011;10708;50.824;4.408;2023-04-04T08:45:15;45.77;;;43.17;;
21099;SDS011;10708;50.824;4.408;2023-04-04T08:50:20;36.63;;;34.47;;
21099;SDS011;10708;50.824;4.408;2023-04-04T08:55:25;38.47;;;36.22;;
21099;SDS011;10708;50.824;4.408;2023-04-04T09:00:28;36.55;;;34.45;;
21099;SDS011;10708;50.824;4.408;2023-04-04T09:05:32;34.53;;;32.53;;
21099;SDS011;10708;50.824;4.408;2023-04-04T09:10:35;35.22;;;33.00;;
21099;SDS011;10708;50.824;4.408;2023-04-04T09:15:39;34.47;;;32.58;;
21099;SDS011;10708;50.824;4.408;2023-04-04T09:20:46;31.67;;;29.85;;
21099;SDS011;10708;50.824;4.408;2023-04-04T09:25:49;38.50;;;36.30;;
21099;SDS011;10708;50.824;4.408;2023-04-04T09:30:53;35.83;;;33.80;;
21099;SDS011;10708;50.824;4.408;2023-04-04T09:35:58;34.50;;;32.15;;
21099;SDS011;10708;50.824;4.408;2023-04-04T09:41:06;26.88;;;25.08;;
21099;SDS011;10708;50.824;4.408;2023-04-04T09:46:11;32.72;;;30.75;;
21099;SDS011;10708;50.824;4.408;2023-04-04T09:51:16;31.07;;;29.17;;
21099;SDS011;10708;50.824;4.408;2023-04-04T09:56:19;43.10;;;40.50;;
21099;SDS011;10708;50.824;4.408;2023-04-04T10:01:23;51.53;;;48.53;;
21099;SDS011;10708;50.824;4.408;2023-04-04T10:06:27;80.55;;;76.00;;
21099;SDS011;10708;50.824;4.408;2023-04-04T10:11:32;77.57;;;73.47;;
21099;SDS011;10708;50.824;4.408;2023-04-04T10:16:42;44.92;;;42.20;;
21099;SDS011;10708;50.824;4.408;2023-04-04T10:21:48;61.45;;;57.88;;
21099;SDS011;10708;50.824;4.408;2023-04-04T10:26:51;35.97;;;33.80;;
21099;SDS011;10708;50.824;4.408;2023-04-04T10:31:56;37.53;;;35.23;;
21099;SDS011;10708;50.824;4.408;2023-04-04T10:37:06;44.93;;;42.33;;
21099;SDS011;10708;50.824;4.408;2023-04-04T10:42:14;37.90;;;35.40;;
21099;SDS011;10708;50.824;4.408;2023-04-04T10:47:17;45.70;;;42.85;;
21099;SDS011;10708;50.824;4.408;2023-04-04T10:52:26;64.22;;;60.67;;
21099;SDS011;10708;50.824;4.408;2023-04-04T10:57:29;74.43;;;70.23;;
21099;SDS011;10708;50.824;4.408;2023-04-04T11:02:46;53.90;;;50.80;;
21099;SDS011;10708;50.824;4.408;2023-04-04T11:07:55;132.05;;;124.50;;
21099;SDS011;10708;50.824;4.408;2023-04-04T11:13:00;57.67;;;54.42;;
21099;SDS011;10708;50.824;4.408;2023-04-04T11:18:11;61.05;;;57.47;;
21099;SDS011;10708;50.824;4.408;2023-04-04T11:23:15;68.47;;;64.55;;
21099;SDS011;10708;50.824;4.408;2023-04-04T11:28:26;65.47;;;61.77;;
21099;SDS011;10708;50.824;4.408;2023-04-04T11:33:54;82.78;;;78.25;;
21099;SDS011;10708;50.824;4.408;2023-04-04T11:39:00;47.63;;;44.80;;
21099;SDS011;10708;50.824;4.408;2023-04-04T11:44:07;55.33;;;52.07;;
21099;SDS011;10708;50.824;4.408;2023-04-04T11:49:11;63.37;;;59.83;;
21099;SDS011;10708;50.824;4.408;2023-04-04T11:54:16;56.42;;;53.22;;
21099;SDS011;10708;50.824;4.408;2023-04-04T11:59:20;46.05;;;43.17;;
21099;SDS011;10708;50.824;4.408;2023-04-04T12:04:24;79.38;;;74.75;;
21099;SDS011;10708;50.824;4.408;2023-04-04T12:09:28;39.60;;;37.30;;
21099;SDS011;10708;50.824;4.408;2023-04-04T12:14:31;45.63;;;43.03;;
21099;SDS011;10708;50.824;4.408;2023-04-04T12:19:35;48.95;;;46.08;;
21099;SDS011;10708;50.824;4.408;2023-04-04T12:24:40;27.38;;;25.67;;
21099;SDS011;10708;50.824;4.408;2023-04-04T12:29:43;40.70;;;38.08;;
21099;SDS011;10708;50.824;4.408;2023-04-04T12:34:47;38.60;;;36.37;;
21099;SDS011;10708;50.824;4.408;2023-04-04T12:39:52;45.77;;;42.97;;
21099;SDS011;10708;50.824;4.408;2023-04-04T12:44:55;33.30;;;31.10;;
21099;SDS011;10708;50.824;4.408;2023-04-04T12:49:59;44.38;;;41.75;;
21099;SDS011;10708;50.824;4.408;2023-04-04T12:55:08;28.15;;;26.15;;
21099;SDS011;10708;50.824;4.408;2023-04-04T13:00:11;31.60;;;29.63;;
21099;SDS011;10708;50.824;4.408;2023-04-04T13:05:14;43.42;;;40.90;;
21099;SDS011;10708;50.824;4.408;2023-04-04T13:10:21;30.20;;;28.27;;
21099;SDS011;10708;50.824;4.408;2023-04-04T13:15:23;22.80;;;21.40;;
21099;SDS011;10708;50.824;4.408;2023-04-04T13:20:50;33.23;;;31.27;;
21099;SDS011;10708;50.824;4.408;2023-04-04T13:25:55;22.75;;;21.30;;
21099;SDS011;10708;50.824;4.408;2023-04-04T13:31:00;23.15;;;21.50;;
21099;SDS011;10708;50.824;4.408;2023-04-04T13:36:03;27.17;;;24.93;;
21099;SDS011;10708;50.824;4.408;2023-04-04T13:41:07;27.95;;;26.23;;
21099;SDS011;10708;50.824;4.408;2023-04-04T13:46:10;24.50;;;23.00;;
21099;SDS011;10708;50.824;4.408;2023-04-04T13:51:12;25.50;;;23.70;;
21099;SDS011;10708;50.824;4.408;2023-04-04T13:56:16;25.95;;;24.20;;
21099;SDS011;10708;50.824;4.408;2023-04-04T14:01:20;21.48;;;20.17;;
21099;SDS011;10708;50.824;4.408;2023-04-04T14:06:22;22.20;;;20.70;;
21099;SDS011;10708;50.824;4.408;2023-04-04T14:11:26;24.97;;;23.33;;
21099;SDS011;10708;50.824;4.408;2023-04-04T14:16:30;27.23;;;25.58;;
21099;SDS011;10708;50.824;4.408;2023-04-04T14:21:33;27.63;;;25.83;;
21099;SDS011;10708;50.824;4.408;2023-04-04T14:26:37;27.23;;;25.63;;
21099;SDS011;10708;50.824;4.408;2023-04-04T14:31:40;32.72;;;30.58;;
21099;SDS011;10708;50.824;4.408;2023-04-04T14:36:43;24.98;;;23.35;;
21099;SDS011;10708;50.824;4.408;2023-04-04T14:41:47;24.80;;;23.20;;
21099;SDS011;10708;50.824;4.408;2023-04-04T14:46:49;30.03;;;28.23;;
21099;SDS011;10708;50.824;4.408;2023-04-04T14:51:53;28.35;;;26.55;;
21099;SDS011;10708;50.824;4.408;2023-04-04T14:56:57;42.70;;;40.00;;
21099;SDS011;10708;50.824;4.408;2023-04-04T15:02:02;43.00;;;40.50;;
21099;SDS011;10708;50.824;4.408;2023-04-04T15:07:07;40.28;;;37.88;;
21099;SDS011;10708;50.824;4.408;2023-04-04T15:12:11;43.35;;;40.83;;
21099;SDS011;10708;50.824;4.408;2023-04-04T15:17:15;41.35;;;38.72;;
21099;SDS011;10708;50.824;4.408;2023-04-04T15:22:19;37.30;;;34.90;;
21099;SDS011;10708;50.824;4.408;2023-04-04T15:27:23;43.87;;;41.27;;
21099;SDS011;10708;50.824;4.408;2023-04-04T15:32:26;38.42;;;35.97;;
21099;SDS011;10708;50.824;4.408;2023-04-04T15:37:29;43.37;;;40.67;;
21099;SDS011;10708;50.824;4.408;2023-04-04T15:42:33;38.15;;;35.75;;
21099;SDS011;10708;50.824;4.408;2023-04-04T15:47:35;35.38;;;32.88;;
21099;SDS011;10708;50.824;4.408;2023-04-04T15:52:38;34.00;;;32.00;;
21099;SDS011;10708;50.824;4.408;2023-04-04T15:57:42;32.50;;;30.40;;
21099;SDS011;10708;50.824;4.408;2023-04-04T16:02:44;31.95;;;29.95;;
21099;SDS011;10708;50.824;4.408;2023-04-04T16:07:46;32.72;;;30.75;;
21099;SDS011;10708;50.824;4.408;2023-04-04T16:12:50;35.38;;;33.17;;
21099;SDS011;10708;50.824;4.408;2023-04-04T16:17:53;35.97;;;33.67;;
21099;SDS011;10708;50.824;4.408;2023-04-04T16:22:58;34.22;;;31.90;;
21099;SDS011;10708;50.824;4.408;2023-04-04T16:28:02;30.92;;;28.83;;
21099;SDS011;10708;50.824;4.408;2023-04-04T16:33:05;31.93;;;30.03;;
21099;SDS011;10708;50.824;4.408;2023-04-04T16:38:07;31.20;;;29.15;;
21099;SDS011;10708;50.824;4.408;2023-04-04T16:43:11;32.65;;;30.52;;
21099;SDS011;10708;50.824;4.408;2023-04-04T16:48:13;33.65;;;31.55;;
21099;SDS011;10708;50.824;4.408;2023-04-04T16:53:15;35.60;;;33.10;;
21099;SDS011;10708;50.824;4.408;2023-04-04T16:58:19;35.10;;;32.60;;
21099;SDS011;10708;50.824;4.408;2023-04-04T17:03:22;32.75;;;30.80;;
21099;SDS011;10708;50.824;4.408;2023-04-04T17:08:24;31.87;;;29.80;;
21099;SDS011;10708;50.824;4.408;2023-04-04T17:13:28;29.70;;;27.90;;
21099;SDS011;10708;50.824;4.408;2023-04-04T17:18:31;30.87;;;28.73;;
21099;SDS011;10708;50.824;4.408;2023-04-04T17:23:33;31.55;;;29.38;;
21099;SDS011;10708;50.824;4.408;2023-04-04T17:28:37;31.40;;;29.30;;
21099;SDS011;10708;50.824;4.408;2023-04-04T17:33:39;31.15;;;28.90;;
21099;SDS011;10708;50.824;4.408;2023-04-04T17:38:42;29.88;;;27.88;;
21099;SDS011;10708;50.824;4.408;2023-04-04T17:43:46;31.10;;;29.00;;
21099;SDS011;10708;50.824;4.408;2023-04-04T17:48:48;29.58;;;27.67;;
21099;SDS011;10708;50.824;4.408;2023-04-04T17:53:51;36.97;;;34.28;;
21099;SDS011;10708;50.824;4.408;2023-04-04T17:58:55;36.37;;;34.17;;
21099;SDS011;10708;50.824;4.408;2023-04-04T18:03:57;36.20;;;33.70;;
21099;SDS011;10708;50.824;4.408;2023-04-04T18:09:00;35.10;;;32.92;;
21099;SDS011;10708;50.824;4.408;2023-04-04T18:14:05;36.60;;;34.27;;
21099;SDS011;10708;50.824;4.408;2023-04-04T18:19:08;29.02;;;26.67;;
21099;SDS011;10708;50.824;4.408;2023-04-04T18:24:10;31.23;;;29.30;;
21099;SDS011;10708;50.824;4.408;2023-04-04T18:29:15;34.17;;;31.83;;
21099;SDS011;10708;50.824;4.408;2023-04-04T18:34:17;33.80;;;31.60;;
21099;SDS011;10708;50.824;4.408;2023-04-04T18:39:20;38.88;;;36.33;;
21099;SDS011;10708;50.824;4.408;2023-04-04T18:44:24;38.10;;;35.70;;
21099;SDS011;10708;50.824;4.408;2023-04-04T18:49:26;44.38;;;41.65;;
21099;SDS011;10708;50.824;4.408;2023-04-04T18:54:29;44.20;;;41.60;;
21099;SDS011;10708;50.824;4.408;2023-04-04T18:59:33;47.60;;;44.70;;
21099;SDS011;10708;50.824;4.408;2023-04-04T19:04:36;46.95;;;43.92;;
21099;SDS011;10708;50.824;4.408;2023-04-04T19:09:40;48.65;;;45.33;;
21099;SDS011;10708;50.824;4.408;2023-04-04T19:14:46;59.97;;;56.37;;
21099;SDS011;10708;50.824;4.408;2023-04-04T19:19:48;57.15;;;53.75;;
21099;SDS011;10708;50.824;4.408;2023-04-04T19:24:51;60.10;;;56.40;;
21099;SDS011;10708;50.824;4.408;2023-04-04T19:29:55;60.55;;;56.85;;
21099;SDS011;10708;50.824;4.408;2023-04-04T19:34:58;65.45;;;61.28;;
21099;SDS011;10708;50.824;4.408;2023-04-04T19:40:02;69.77;;;65.63;;
21099;SDS011;10708;50.824;4.408;2023-04-04T19:45:23;58.45;;;54.88;;
21099;SDS011;10708;50.824;4.408;2023-04-04T19:50:47;40.05;;;37.35;;
21099;SDS011;10708;50.824;4.408;2023-04-04T19:55:49;41.97;;;39.10;;
21099;SDS011;10708;50.824;4.408;2023-04-04T20:00:53;40.55;;;38.03;;
21099;SDS011;10708;50.824;4.408;2023-04-04T20:06:01;36.40;;;34.13;;
21099;SDS011;10708;50.824;4.408;2023-04-04T20:11:08;57.28;;;53.28;;
21099;SDS011;10708;50.824;4.408;2023-04-04T20:16:13;78.63;;;73.93;;
21099;SDS011;10708;50.824;4.408;2023-04-04T20:21:17;112.43;;;105.80;;
21099;SDS011;10708;50.824;4.408;2023-04-04T20:31:55;114.10;;;107.57;;
21099;SDS011;10708;50.824;4.408;2023-04-04T20:36:58;164.95;;;155.68;;
21099;SDS011;10708;50.824;4.408;2023-04-04T20:42:10;215.95;;;204.40;;
21099;SDS011;10708;50.824;4.408;2023-04-04T20:47:29;193.60;;;182.95;;
21099;SDS011;10708;50.824;4.408;2023-04-04T20:52:44;115.75;;;109.10;;
21099;SDS011;10708;50.824;4.408;2023-04-04T20:57:47;130.73;;;123.35;;
21099;SDS011;10708;50.824;4.408;2023-04-04T21:02:51;60.15;;;56.42;;
21099;SDS011;10708;50.824;4.408;2023-04-04T21:07:54;34.67;;;32.07;;
21099;SDS011;10708;50.824;4.408;2023-04-04T21:12:58;30.83;;;28.52;;
21099;SDS011;10708;50.824;4.408;2023-04-04T21:18:05;30.23;;;27.92;;
21099;SDS011;10708;50.824;4.408;2023-04-04T21:23:17;42.50;;;39.40;;
21099;SDS011;10708;50.824;4.408;2023-04-04T21:28:32;29.48;;;27.17;;
21099;SDS011;10708;50.824;4.408;2023-04-04T21:33:37;46.53;;;43.10;;
21099;SDS011;10708;50.824;4.408;2023-04-04T21:38:39;78.78;;;73.47;;
21099;SDS011;10708;50.824;4.408;2023-04-04T21:43:42;33.47;;;30.85;;
21099;SDS011;10708;50.824;4.408;2023-04-04T21:48:46;28.48;;;26.00;;
21099;SDS011;10708;50.824;4.408;2023-04-04T21:53:48;52.47;;;48.80;;
21099;SDS011;10708;50.824;4.408;2023-04-04T21:58:51;82.57;;;77.43;;
21099;SDS011;10708;50.824;4.408;2023-04-04T22:03:56;70.18;;;65.72;;
21099;SDS011;10708;50.824;4.408;2023-04-04T22:08:59;67.10;;;62.60;;
21099;SDS011;10708;50.824;4.408;2023-04-04T22:14:03;77.43;;;72.47;;
21099;SDS011;10708;50.824;4.408;2023-04-04T22:19:07;87.78;;;82.53;;
21099;SDS011;10708;50.824;4.408;2023-04-04T22:24:10;131.80;;;124.30;;
21099;SDS011;10708;50.824;4.408;2023-04-04T22:29:13;128.40;;;121.03;;
21099;SDS011;10708;50.824;4.408;2023-04-04T22:34:17;172.73;;;162.35;;
21099;SDS011;10708;50.824;4.408;2023-04-04T22:39:19;100.68;;;94.63;;
21099;SDS011;10708;50.824;4.408;2023-04-04T22:44:22;159.23;;;149.82;;
21099;SDS011;10708;50.824;4.408;2023-04-04T22:49:26;229.15;;;215.55;;
21099;SDS011;10708;50.824;4.408;2023-04-04T22:54:28;58.78;;;54.85;;
21099;SDS011;10708;50.824;4.408;2023-04-04T22:59:31;141.15;;;133.18;;
21099;SDS011;10708;50.824;4.408;2023-04-04T23:04:34;103.33;;;97.27;;
21099;SDS011;10708;50.824;4.408;2023-04-04T23:09:37;254.57;;;239.70;;
21099;SDS011;10708;50.824;4.408;2023-04-04T23:14:39;114.78;;;108.00;;
21099;SDS011;10708;50.824;4.408;2023-04-04T23:19:43;42.27;;;39.27;;
21099;SDS011;10708;50.824;4.408;2023-04-04T23:24:46;47.05;;;43.67;;
21099;SDS011;10708;50.824;4.408;2023-04-04T23:29:49;86.67;;;81.30;;
21099;SDS011;10708;50.824;4.408;2023-04-04T23:34:53;127.80;;;120.18;;
21099;SDS011;10708;50.824;4.408;2023-04-04T23:39:56;70.90;;;66.45;;
21099;SDS011;10708;50.824;4.408;2023-04-04T23:44:58;43.97;;;40.90;;
21099;SDS011;10708;50.824;4.408;2023-04-04T23:50:03;364.02;;;343.60;;
21099;SDS011;10708;50.824;4.408;2023-04-04T23:55:07;132.80;;;124.83;;
